Time;durP1;ratioP1;P1;durP2;ratioP2;P2;SDS_P1;SDS_P2;PMS_P1;PMS_P2;Temp;Humidity;BMP_temperature;BMP_pressure;BME280_temperature;BME280_humidity;BME280_pressure;Samples;Min_cycle;Max_cycle;Signal;HPM_P1;HPM_P2
2021/07/18 00:06:57;;;;;;;8.07;2.00;;;22.10;64.70;;;;;;20993019;28;20435;-20
2021/07/18 00:16:57;;;;;;;3.55;1.98;;;22.00;64.80;;;;;;21065531;28;20039;-20
2021/07/18 00:26:58;;;;;;;5.03;2.38;;;22.10;65.10;;;;;;21078993;28;20057;-20
2021/07/18 00:36:59;;;;;;;5.82;1.92;;;22.00;65.00;;;;;;21051855;28;20413;-21
2021/07/18 00:46:59;;;;;;;4.43;1.77;;;22.10;65.10;;;;;;21077526;28;20544;-20
2021/07/18 00:57:01;;;;;;;6.33;2.40;;;22.00;65.10;;;;;;21076764;28;20078;-21
2021/07/18 01:07:04;;;;;;;4.68;1.90;;;22.00;64.80;;;;;;21054869;28;20098;-21
2021/07/18 01:17:05;;;;;;;4.63;1.67;;;21.90;65.10;;;;;;21073814;28;20036;-20
2021/07/18 01:27:06;;;;;;;4.25;2.22;;;21.90;65.00;;;;;;21075099;28;20503;-20
2021/07/18 01:37:07;;;;;;;5.72;2.58;;;21.90;65.40;;;;;;21074130;28;20417;-20
2021/07/18 01:47:08;;;;;;;4.88;2.70;;;21.90;65.20;;;;;;21067449;28;20040;-20
2021/07/18 01:57:17;;;;;;;4.97;3.50;;;21.80;65.40;;;;;;21068407;28;20036;-20
2021/07/18 02:17:25;;;;;;;6.50;3.57;;;21.90;65.90;;;;;;20952134;28;20114;-19
2021/07/18 02:27:25;;;;;;;7.65;3.28;;;21.80;66.10;;;;;;20960283;28;20029;-19
2021/07/18 02:37:26;;;;;;;8.02;4.68;;;21.70;66.10;;;;;;20982136;28;20404;-19
2021/07/18 02:47:27;;;;;;;7.10;3.50;;;21.70;66.20;;;;;;20971159;28;20017;-19
2021/07/18 02:57:27;;;;;;;7.17;3.83;;;21.80;66.30;;;;;;20985402;28;20055;-19
2021/07/18 03:07:28;;;;;;;7.28;3.40;;;21.80;66.20;;;;;;20985049;28;20929;-19
2021/07/18 03:17:29;;;;;;;9.20;4.28;;;21.80;66.40;;;;;;20982928;28;20040;-19
2021/07/18 03:27:29;;;;;;;7.07;3.45;;;21.80;66.30;;;;;;20971439;28;20641;-19
2021/07/18 03:37:30;;;;;;;7.25;3.90;;;21.80;66.40;;;;;;20983753;28;20083;-19
2021/07/18 03:47:31;;;;;;;8.60;3.67;;;21.80;66.20;;;;;;20990364;28;20035;-19
2021/07/18 03:57:31;;;;;;;7.05;4.03;;;21.70;66.30;;;;;;21000291;28;20036;-19
2021/07/18 04:07:32;;;;;;;9.50;5.30;;;21.70;66.40;;;;;;20998506;28;20035;-20
2021/07/18 04:17:33;;;;;;;5.00;3.83;;;21.70;66.50;;;;;;20996776;28;20036;-19
2021/07/18 04:27:34;;;;;;;8.07;4.18;;;21.70;66.20;;;;;;20981502;28;20479;-20
2021/07/18 04:37:38;;;;;;;8.90;4.90;;;21.70;66.30;;;;;;20995141;28;20112;-18
2021/07/18 04:47:46;;;;;;;12.95;5.60;;;21.70;66.20;;;;;;20982506;28;20526;-19
2021/07/18 04:57:47;;;;;;;9.07;5.93;;;21.70;66.10;;;;;;20991722;28;20538;-19
2021/07/18 05:07:50;;;;;;;11.13;5.90;;;21.60;66.30;;;;;;20996047;28;20435;-19
2021/07/18 05:17:51;;;;;;;9.00;6.18;;;21.60;66.30;;;;;;20987620;28;20060;-19
2021/07/18 05:27:52;;;;;;;8.35;5.65;;;21.60;66.40;;;;;;20945692;28;20033;-19
2021/07/18 05:37:52;;;;;;;9.88;6.75;;;21.50;66.60;;;;;;20949622;28;20115;-19
2021/07/18 05:47:53;;;;;;;9.23;6.65;;;21.50;66.60;;;;;;20938480;28;20114;-19
2021/07/18 05:57:53;;;;;;;9.25;6.80;;;21.70;66.50;;;;;;20933763;28;20121;-20
2021/07/18 06:07:54;;;;;;;12.65;7.35;;;21.60;66.50;;;;;;20928620;28;20036;-19
2021/07/18 06:17:54;;;;;;;10.05;6.50;;;21.60;67.10;;;;;;20930770;28;20120;-19
2021/07/18 06:27:55;;;;;;;10.73;7.00;;;21.60;66.50;;;;;;20948966;28;20128;-19
2021/07/18 06:37:56;;;;;;;10.05;7.22;;;21.60;66.70;;;;;;20956139;28;20048;-19
2021/07/18 06:47:56;;;;;;;13.05;6.22;;;21.60;66.50;;;;;;20942631;28;20028;-19
2021/07/18 06:57:57;;;;;;;11.68;6.00;;;21.60;66.50;;;;;;20940563;28;20029;-19
2021/07/18 07:07:57;;;;;;;12.55;6.47;;;21.50;66.40;;;;;;20927584;28;20028;-20
2021/07/18 07:17:58;;;;;;;10.70;5.78;;;21.60;66.40;;;;;;20920110;28;20037;-19
2021/07/18 07:27:58;;;;;;;7.53;5.10;;;21.60;66.20;;;;;;20956298;28;20059;-20
2021/07/18 07:37:59;;;;;;;10.85;4.90;;;21.60;66.30;;;;;;20972192;28;20087;-19
2021/07/18 07:48:00;;;;;;;9.93;4.70;;;21.60;66.30;;;;;;20930232;28;20037;-20
2021/07/18 07:58:01;;;;;;;6.35;4.13;;;21.60;66.40;;;;;;20893543;28;20467;-19
2021/07/18 08:08:03;;;;;;;8.07;4.32;;;21.70;66.10;;;;;;20846751;28;20037;-19
2021/07/18 08:18:04;;;;;;;10.57;4.60;;;21.60;66.20;;;;;;20885848;28;20567;-20
2021/07/18 08:28:04;;;;;;;20.33;4.75;;;21.70;66.10;;;;;;20836266;28;20249;-19
2021/07/18 08:38:06;;;;;;;10.50;5.25;;;21.70;66.10;;;;;;20888327;28;20036;-20
2021/07/18 08:48:08;;;;;;;20.63;4.60;;;21.70;66.30;;;;;;20935928;22;20601;-20
2021/07/18 08:58:09;;;;;;;6.72;4.07;;;21.70;66.00;;;;;;20880975;28;20036;-22
2021/07/18 09:08:18;;;;;;;9.07;4.22;;;21.70;65.80;;;;;;20918002;28;20032;-20
2021/07/18 09:18:24;;;;;;;7.80;3.90;;;21.70;65.60;;;;;;20913970;28;20025;-20
2021/07/18 09:28:25;;;;;;;6.78;3.90;;;21.70;65.30;;;;;;20907413;28;20053;-20
2021/07/18 09:38:26;;;;;;;7.28;3.92;;;21.70;64.80;;;;;;20915135;28;20024;-21
2021/07/18 09:48:44;;;;;;;9.68;3.50;;;21.70;64.50;;;;;;20927544;28;20559;-20
2021/07/18 09:58:55;;;;;;;5.63;4.07;;;21.70;64.90;;;;;;20926917;28;20029;-19
2021/07/18 10:08:58;;;;;;;6.07;3.60;;;21.70;64.60;;;;;;20928095;28;20112;-20
2021/07/18 10:18:59;;;;;;;7.75;3.55;;;21.70;65.00;;;;;;20933945;28;20658;-20
2021/07/18 10:28:59;;;;;;;4.80;3.42;;;21.70;65.00;;;;;;20921692;28;20064;-20
2021/07/18 10:39:00;;;;;;;5.50;3.33;;;21.80;64.70;;;;;;20920048;28;20036;-20
2021/07/18 10:49:00;;;;;;;8.10;4.03;;;21.80;64.20;;;;;;20924163;28;20032;-20
2021/07/18 10:59:01;;;;;;;4.85;3.67;;;21.80;64.60;;;;;;20923458;28;20029;-20
2021/07/18 11:09:19;;;;;;;8.07;3.88;;;21.80;64.70;;;;;;20932346;28;20979;-20
2021/07/18 11:19:37;;;;;;;6.17;3.33;;;21.90;65.00;;;;;;20940208;28;20028;-20
2021/07/18 11:29:38;;;;;;;;;;;21.90;64.80;;;;;;20913462;28;20021;-20
2021/07/18 11:39:40;;;;;;;5.78;3.20;;;22.00;64.30;;;;;;20917967;28;19983;-19
2021/07/18 11:49:44;;;;;;;6.47;3.70;;;21.90;64.50;;;;;;20915726;28;20040;-20
2021/07/18 11:59:48;;;;;;;7.32;4.22;;;22.00;64.90;;;;;;20925581;28;20033;-20
2021/07/18 12:09:49;;;;;;;8.70;3.55;;;22.10;65.30;;;;;;20923428;28;20025;-19
2021/07/18 12:19:49;;;;;;;12.93;4.10;;;22.10;66.30;;;;;;20916020;28;20036;-20
2021/07/18 12:29:51;;;;;;;9.88;4.45;;;22.20;66.30;;;;;;20948509;28;20025;-20
2021/07/18 12:39:59;;;;;;;9.32;3.85;;;22.20;66.20;;;;;;20887721;28;20086;-21
2021/07/18 12:50:29;;;;;;;5.30;3.15;;;22.20;66.10;;;;;;20893627;28;20052;-21
2021/07/18 13:00:31;;;;;;;5.18;3.75;;;22.20;65.90;;;;;;20909552;28;20033;-21
2021/07/18 13:10:41;;;;;;;9.48;4.32;;;22.20;65.90;;;;;;20909682;28;20021;-19
2021/07/18 13:20:43;;;;;;;5.93;3.55;;;22.20;65.90;;;;;;20920627;28;20502;-20
2021/07/18 13:30:43;;;;;;;6.65;3.90;;;22.30;66.00;;;;;;20934640;28;20475;-20
2021/07/18 13:40:44;;;;;;;6.05;3.33;;;22.30;66.00;;;;;;20919688;28;20106;-19
2021/07/18 13:50:45;;;;;;;8.57;3.90;;;22.30;66.00;;;;;;20918316;28;20048;-20
2021/07/18 14:00:48;;;;;;;7.50;3.97;;;22.40;65.90;;;;;;20919691;28;20520;-21
2021/07/18 14:10:49;;;;;;;10.88;3.90;;;22.30;65.90;;;;;;20922831;28;20032;-20
2021/07/18 14:20:52;;;;;;;12.18;4.85;;;22.30;66.00;;;;;;20926950;28;20395;-19
2021/07/18 14:30:53;;;;;;;7.80;4.15;;;22.30;65.90;;;;;;20913505;28;20037;-19
2021/07/18 14:40:55;;;;;;;10.35;3.83;;;22.40;66.00;;;;;;20914274;28;20079;-20
2021/07/18 14:50:57;;;;;;;10.90;4.47;;;22.30;65.90;;;;;;20909076;23;20136;-20
2021/07/18 15:00:58;;;;;;;7.85;3.83;;;22.40;66.00;;;;;;20967421;28;20400;-19
2021/07/18 15:10:58;;;;;;;5.97;3.33;;;22.40;65.90;;;;;;20971932;28;20115;-20
2021/07/18 15:20:59;;;;;;;5.45;3.45;;;22.40;65.90;;;;;;20975435;28;20419;-20
2021/07/18 15:31:00;;;;;;;4.38;3.53;;;22.40;65.90;;;;;;20981237;28;20024;-20
2021/07/18 15:41:00;;;;;;;10.38;4.45;;;22.40;65.90;;;;;;20988122;28;20482;-20
2021/07/18 15:51:01;;;;;;;4.47;3.30;;;22.50;65.90;;;;;;20953203;28;20032;-19
2021/07/18 16:01:01;;;;;;;8.43;2.90;;;22.50;65.90;;;;;;20969564;28;20463;-19
2021/07/18 16:11:02;;;;;;;4.03;3.10;;;22.50;65.80;;;;;;20947992;28;20033;-20
2021/07/18 16:21:03;;;;;;;2.85;2.47;;;22.50;65.80;;;;;;20961084;28;20478;-19
2021/07/18 16:31:03;;;;;;;4.65;3.83;;;22.50;65.80;;;;;;20897852;28;20029;-19
2021/07/18 16:41:04;;;;;;;5.18;3.05;;;22.60;65.80;;;;;;20947665;28;20125;-19
2021/07/18 16:51:05;;;;;;;3.75;3.08;;;22.60;65.70;;;;;;20953116;28;20040;-19
2021/07/18 17:01:07;;;;;;;4.07;3.00;;;22.70;65.60;;;;;;20956218;28;20033;-19
2021/07/18 17:11:08;;;;;;;4.88;3.40;;;22.70;65.50;;;;;;20936746;28;20033;-19
2021/07/18 17:21:10;;;;;;;4.07;2.83;;;22.80;65.60;;;;;;20978808;28;20036;-21
2021/07/18 17:31:11;;;;;;;4.10;3.05;;;22.80;65.60;;;;;;20978319;28;20429;-19
2021/07/18 17:41:11;;;;;;;3.63;2.78;;;22.80;65.50;;;;;;20980910;28;20079;-19
2021/07/18 17:51:12;;;;;;;3.45;2.88;;;22.80;65.70;;;;;;20987852;28;20113;-19
2021/07/18 18:01:13;;;;;;;9.18;3.28;;;22.70;65.60;;;;;;20986682;28;20056;-19
2021/07/18 18:11:14;;;;;;;3.30;2.70;;;22.70;65.80;;;;;;20983655;28;20029;-19
2021/07/18 18:21:14;;;;;;;4.15;2.47;;;22.70;65.80;;;;;;20975058;28;20078;-19
2021/07/18 18:31:15;;;;;;;4.18;3.15;;;22.60;65.90;;;;;;20988058;28;20029;-21
2021/07/18 18:41:16;;;;;;;4.53;3.40;;;22.60;66.00;;;;;;20991462;28;20052;-19
2021/07/18 18:51:17;;;;;;;4.38;2.85;;;22.60;66.10;;;;;;20989908;28;20044;-20
2021/07/18 19:01:19;;;;;;;3.45;3.08;;;22.60;66.20;;;;;;20988086;28;20410;-19
2021/07/18 19:11:19;;;;;;;3.35;2.80;;;22.50;66.70;;;;;;20985701;28;20092;-20
2021/07/18 19:21:20;;;;;;;3.17;2.70;;;22.50;66.20;;;;;;20998525;28;20475;-20
2021/07/18 19:31:22;;;;;;;3.70;2.80;;;22.50;66.20;;;;;;20997689;28;20029;-19
2021/07/18 19:41:23;;;;;;;3.03;2.45;;;22.50;66.20;;;;;;21000356;28;20512;-19
2021/07/18 19:51:23;;;;;;;4.13;2.60;;;22.50;66.20;;;;;;20967515;28;20032;-19
2021/07/18 20:01:24;;;;;;;6.32;3.10;;;22.50;66.20;;;;;;20956487;28;20029;-19
2021/07/18 20:11:24;;;;;;;12.65;3.63;;;22.50;66.30;;;;;;20966879;28;20033;-19
2021/07/18 20:21:25;;;;;;;7.32;2.90;;;22.50;66.20;;;;;;20962157;28;20044;-19
2021/07/18 20:31:26;;;;;;;9.18;3.00;;;22.50;66.40;;;;;;20963490;28;20082;-20
2021/07/18 20:41:29;;;;;;;5.55;2.55;;;22.50;67.20;;;;;;20948267;28;20090;-19
2021/07/18 20:51:29;;;;;;;8.23;3.03;;;22.40;66.60;;;;;;20953610;28;20509;-19
2021/07/18 21:01:30;;;;;;;13.90;5.13;;;22.40;64.90;;;;;;20952606;28;20033;-19
2021/07/18 21:11:30;;;;;;;7.97;4.10;;;22.40;64.50;;;;;;20967826;28;20032;-19
2021/07/18 21:21:31;;;;;;;12.23;4.53;;;22.30;64.00;;;;;;20967973;28;20036;-19
2021/07/18 21:31:32;;;;;;;10.68;4.65;;;22.30;63.20;;;;;;20968813;28;20155;-19
2021/07/18 21:41:32;;;;;;;11.40;4.93;;;22.20;63.00;;;;;;20967477;28;20394;-19
2021/07/18 21:51:33;;;;;;;10.35;4.63;;;22.10;62.20;;;;;;20946170;28;20036;-20
2021/07/18 22:01:33;;;;;;;11.18;5.40;;;22.00;62.10;;;;;;20945203;28;20087;-19
2021/07/18 22:11:34;;;;;;;14.70;6.35;;;22.00;60.90;;;;;;20953148;28;20372;-19
2021/07/18 22:21:36;;;;;;;8.33;4.93;;;22.00;60.90;;;;;;20959414;28;20094;-19
2021/07/18 22:31:37;;;;;;;12.98;6.05;;;22.00;61.60;;;;;;20964246;28;20470;-19
2021/07/18 22:41:38;;;;;;;9.23;5.43;;;21.90;59.90;;;;;;20972293;28;20074;-19
2021/07/18 22:51:38;;;;;;;12.55;5.68;;;21.90;60.00;;;;;;20984805;28;20104;-19
2021/07/18 23:01:39;;;;;;;8.68;5.50;;;21.90;59.10;;;;;;20972270;28;20051;-19
2021/07/18 23:11:39;;;;;;;10.60;6.47;;;21.70;57.60;;;;;;20985090;28;20035;-19
2021/07/18 23:21:40;;;;;;;9.32;5.45;;;21.70;58.20;;;;;;20984577;28;20387;-19
2021/07/18 23:31:44;;;;;;;8.80;5.88;;;21.70;58.30;;;;;;20969753;28;20017;-19
2021/07/18 23:41:44;;;;;;;9.57;5.75;;;21.70;57.70;;;;;;20984932;28;20024;-19
2021/07/18 23:51:45;;;;;;;18.05;6.13;;;21.70;57.60;;;;;;20975261;28;20048;-19
